Time;durP1;ratioP1;P1;durP2;ratioP2;P2;SDS_P1;SDS_P2;PMS_P1;PMS_P2;Temp;Humidity;BMP_temperature;BMP_pressure;BME280_temperature;BME280_humidity;BME280_pressure;Samples;Min_cycle;Max_cycle;Signal;HPM_P1;HPM_P2
2022/10/06 00:00:41;;;;;;;13.45;8.57;;;;;;;10.65;82.21;101741.53;5020946;28;20165;-74
2022/10/06 00:03:07;;;;;;;23.75;8.98;;;;;;;10.42;83.51;101713.06;5022268;28;20401;-73
2022/10/06 00:05:32;;;;;;;12.10;8.27;;;;;;;11.06;84.19;101842.19;5026910;28;20068;-75
2022/10/06 00:08:00;;;;;;;13.25;9.18;;;;;;;10.44;81.60;101693.00;5034115;28;20026;-74
2022/10/06 00:10:26;;;;;;;14.85;8.57;;;;;;;11.24;81.04;101825.00;5025547;28;20033;-72
2022/10/06 00:12:52;;;;;;;12.95;8.77;;;;;;;11.23;84.05;101826.75;5002146;28;20064;-75
2022/10/06 00:15:22;;;;;;;17.70;8.50;;;;;;;11.09;84.67;101810.72;5025411;28;20501;-72
2022/10/06 00:17:48;;;;;;;14.57;9.20;;;;;;;11.17;84.38;101830.16;5021477;28;20057;-73
2022/10/06 00:20:13;;;;;;;14.13;9.10;;;;;;;10.46;83.40;101682.50;5019168;28;20112;-73
2022/10/06 00:22:42;;;;;;;14.52;8.65;;;;;;;10.54;84.48;101705.44;5020748;28;20355;-73
2022/10/06 00:25:10;;;;;;;13.93;9.68;;;;;;;10.40;84.42;101685.91;4998766;28;20685;-73
2022/10/06 00:27:39;;;;;;;13.63;8.43;;;;;;;10.28;84.65;101681.28;5025939;28;20049;-73
2022/10/06 00:30:08;;;;;;;18.02;9.32;;;;;;;10.92;87.13;101812.13;5016618;28;20085;-75
2022/10/06 00:32:34;;;;;;;28.70;8.88;;;;;;;10.19;85.76;101664.44;5019449;28;20069;-75
2022/10/06 00:35:00;;;;;;;13.15;7.38;;;;;;;10.31;86.37;101681.34;5023477;28;20164;-76
2022/10/06 00:37:27;;;;;;;13.43;8.70;;;;;;;10.25;86.47;101668.03;5028292;28;20040;-76
2022/10/06 00:39:53;;;;;;;18.00;9.52;;;;;;;10.54;85.53;101717.69;5022134;28;20053;-73
2022/10/06 00:42:23;;;;;;;14.60;9.55;;;;;;;10.81;83.42;101774.25;5026147;28;20049;-75
2022/10/06 00:44:49;;;;;;;20.40;10.73;;;;;;;10.98;81.26;101796.50;5025916;28;20073;-74
2022/10/06 00:47:17;;;;;;;13.40;9.10;;;;;;;10.30;81.41;101682.22;5022679;28;21289;-74
2022/10/06 00:49:44;;;;;;;16.70;9.52;;;;;;;10.84;83.95;101769.03;4997272;28;20034;-73
2022/10/06 00:52:15;;;;;;;13.40;8.35;;;;;;;11.03;85.31;101799.19;5005497;28;20025;-76
2022/10/06 00:54:41;;;;;;;14.85;8.90;;;;;;;10.23;86.15;101656.66;5014881;28;20061;-75
2022/10/06 00:57:07;;;;;;;18.70;9.05;;;;;;;10.31;86.63;101685.72;5014127;28;20069;-76
2022/10/06 00:59:33;;;;;;;15.98;9.68;;;;;;;10.12;85.68;101642.41;5016974;28;20053;-76
2022/10/06 01:02:02;;;;;;;12.23;8.60;;;;;;;10.99;85.75;101788.63;5017945;28;20120;-73
2022/10/06 01:04:36;;;;;;;18.42;10.63;;;;;;;10.71;86.98;101747.78;5021143;28;20022;-73
2022/10/06 01:07:03;;;;;;;16.88;10.98;;;;;;;10.86;86.51;101790.97;4995238;28;20354;-77
2022/10/06 01:09:30;;;;;;;21.45;9.63;;;;;;;10.33;86.93;101691.88;5007549;28;20504;-75
2022/10/06 01:12:01;;;;;;;11.10;9.57;;;;;;;10.13;87.05;101647.69;5024578;28;20056;-71
2022/10/06 01:14:27;;;;;;;17.02;9.98;;;;;;;10.88;87.58;101782.28;5022033;28;20532;-76
2022/10/06 01:17:08;;;;;;;14.68;10.02;;;;;;;10.05;87.93;101645.75;5018002;28;20038;-75
2022/10/06 01:19:58;;;;;;;15.65;10.07;;;;;;;10.83;87.72;101781.28;5026038;28;20053;-75
2022/10/06 01:22:34;;;;;;;18.90;9.70;;;;;;;10.72;86.46;101759.16;5019329;28;20064;-76
2022/10/06 01:25:01;;;;;;;15.45;11.18;;;;;;;10.44;87.10;101724.50;5007030;28;20195;-77
2022/10/06 01:27:29;;;;;;;21.85;10.25;;;;;;;10.23;87.15;101679.34;5019693;28;20064;-74
2022/10/06 01:29:56;;;;;;;16.55;9.52;;;;;;;10.67;87.24;101748.56;5014989;28;20046;-74
2022/10/06 01:32:24;;;;;;;18.13;10.77;;;;;;;9.92;86.50;101629.75;5020805;28;20120;-75
2022/10/06 01:34:49;;;;;;;22.15;11.10;;;;;;;10.71;87.63;101770.53;5018349;28;20496;-74
2022/10/06 01:37:15;;;;;;;23.55;10.00;;;;;;;9.93;87.56;101638.50;5020509;28;20517;-71
2022/10/06 01:39:41;;;;;;;20.65;10.15;;;;;;;9.70;87.39;101609.16;5017280;28;20041;-75
2022/10/06 01:42:08;;;;;;;17.67;10.25;;;;;;;10.64;88.46;101772.13;5000422;28;20537;-76
2022/10/06 01:44:33;;;;;;;21.85;9.60;;;;;;;10.47;88.09;101753.41;5013018;28;20072;-74
2022/10/06 01:46:59;;;;;;;17.20;10.18;;;;;;;10.60;87.97;101778.16;5027288;28;20053;-76
2022/10/06 01:49:24;;;;;;;20.30;9.75;;;;;;;10.70;87.35;101779.25;5033261;28;20038;-74
2022/10/06 01:51:49;;;;;;;11.70;8.88;;;;;;;9.86;87.62;101647.97;5017813;28;20199;-75
2022/10/06 01:54:15;;;;;;;20.50;11.23;;;;;;;9.92;86.83;101652.47;5022045;28;20042;-75
2022/10/06 01:56:41;;;;;;;13.35;9.48;;;;;;;9.97;86.78;101668.28;5026229;28;20048;-76
2022/10/06 01:59:06;;;;;;;16.98;9.20;;;;;;;10.66;85.55;101773.06;5010318;28;20057;-76
2022/10/06 02:01:32;;;;;;;13.57;9.18;;;;;;;10.58;85.60;101753.63;5035920;28;20029;-75
2022/10/06 02:03:58;;;;;;;15.57;9.65;;;;;;;10.53;86.50;101757.91;5012826;28;20568;-77
2022/10/06 02:06:23;;;;;;;14.93;9.98;;;;;;;10.66;86.74;101780.94;5025912;28;20728;-76
2022/10/06 02:08:49;;;;;;;20.38;7.93;;;;;;;10.48;84.65;101751.66;5023459;28;20077;-75
2022/10/06 02:11:14;;;;;;;18.42;8.48;;;;;;;10.49;83.73;101756.06;5023347;28;20076;-74
2022/10/06 02:13:40;;;;;;;13.77;9.13;;;;;;;10.03;85.65;101669.31;5015138;28;20453;-75
2022/10/06 02:16:07;;;;;;;18.65;8.93;;;;;;;10.64;84.25;101781.75;5017318;28;20097;-74
2022/10/06 02:18:34;;;;;;;14.43;9.90;;;;;;;10.11;85.01;101691.38;5023132;28;20136;-74
2022/10/06 02:21:01;;;;;;;14.57;8.60;;;;;;;10.61;85.84;101777.34;5017322;28;20081;-73
2022/10/06 02:23:28;;;;;;;15.02;9.07;;;;;;;10.64;84.87;101776.50;5022905;28;20045;-74
2022/10/06 02:26:00;;;;;;;14.70;9.07;;;;;;;10.49;86.02;101749.09;5022872;28;20095;-75
2022/10/06 02:28:26;;;;;;;12.18;7.95;;;;;;;9.74;86.67;101629.34;5018332;28;20117;-74
2022/10/06 02:30:51;;;;;;;15.13;8.13;;;;;;;9.99;87.29;101670.09;5015443;28;20054;-74
2022/10/06 02:33:17;;;;;;;16.40;10.15;;;;;;;10.56;85.40;101776.34;5017771;28;20493;-74
2022/10/06 02:35:44;;;;;;;16.70;8.57;;;;;;;10.21;85.99;101705.56;5023862;28;20141;-75
2022/10/06 02:38:09;;;;;;;18.95;9.98;;;;;;;10.39;87.03;101748.84;5026993;28;20053;-75
2022/10/06 02:40:34;;;;;;;21.13;9.07;;;;;;;10.59;86.63;101775.53;5018465;28;20037;-76
2022/10/06 02:43:00;;;;;;;12.77;9.32;;;;;;;10.49;86.13;101777.94;5017703;28;20038;-75
2022/10/06 02:45:26;;;;;;;13.52;8.90;;;;;;;9.88;85.63;101648.00;5005670;28;20489;-74
2022/10/06 02:47:55;;;;;;;14.35;8.82;;;;;;;9.60;84.87;101635.97;5007352;28;20164;-74
2022/10/06 02:50:20;;;;;;;12.70;8.88;;;;;;;10.53;86.76;101773.63;5024178;28;20045;-74
2022/10/06 02:52:46;;;;;;;13.45;8.07;;;;;;;9.88;87.25;101672.50;5024237;28;20025;-74
2022/10/06 02:55:12;;;;;;;10.95;7.43;;;;;;;10.54;87.05;101785.94;5030824;28;20030;-74
2022/10/06 02:57:38;;;;;;;13.65;8.60;;;;;;;10.08;85.98;101685.16;5010442;28;20401;-74
2022/10/06 03:00:06;;;;;;;16.05;8.80;;;;;;;9.91;86.68;101669.06;5022525;28;20076;-76
2022/10/06 03:02:32;;;;;;;12.80;8.90;;;;;;;10.59;86.28;101772.91;5023987;28;20041;-75
2022/10/06 03:04:57;;;;;;;16.33;9.10;;;;;;;10.53;86.73;101760.53;5027669;28;20072;-74
2022/10/06 03:07:23;;;;;;;14.18;8.75;;;;;;;10.52;87.10;101774.50;5028189;28;20536;-76
2022/10/06 03:09:48;;;;;;;14.25;8.90;;;;;;;10.33;87.38;101736.47;5020713;28;20050;-76
2022/10/06 03:12:14;;;;;;;15.07;8.68;;;;;;;10.51;87.75;101773.63;5021279;28;20108;-76
2022/10/06 03:14:39;;;;;;;21.92;9.57;;;;;;;9.66;88.20;101621.28;5016090;28;20053;-76
2022/10/06 03:17:05;;;;;;;14.57;8.82;;;;;;;9.67;86.48;101636.19;5027663;28;20060;-74
2022/10/06 03:19:30;;;;;;;19.88;8.77;;;;;;;9.85;88.36;101661.91;5030278;28;20057;-74
2022/10/06 03:21:55;;;;;;;22.08;11.10;;;;;;;10.26;88.57;101729.28;5023638;28;20041;-73
2022/10/06 03:24:21;;;;;;;15.48;8.75;;;;;;;10.45;88.37;101767.34;5019119;28;20061;-75
2022/10/06 03:26:47;;;;;;;20.25;9.48;;;;;;;9.83;87.55;101663.63;5018906;28;20576;-75
2022/10/06 03:29:13;;;;;;;13.20;8.60;;;;;;;9.19;87.17;101547.72;5020494;28;20113;-72
2022/10/06 03:31:39;;;;;;;16.23;9.45;;;;;;;10.36;88.70;101754.91;5020251;28;20084;-75
2022/10/06 03:34:05;;;;;;;17.10;9.10;;;;;;;10.41;88.75;101774.25;5023067;28;20049;-74
2022/10/06 03:36:32;;;;;;;20.63;9.50;;;;;;;10.42;88.41;101786.53;5017285;28;20740;-74
2022/10/06 03:38:58;;;;;;;17.00;8.45;;;;;;;10.33;87.37;101755.72;5020244;28;20509;-73
2022/10/06 03:41:29;;;;;;;17.35;9.10;;;;;;;9.78;85.72;101646.00;4997094;28;20038;-75
2022/10/06 03:43:56;;;;;;;19.05;10.07;;;;;;;9.76;87.41;101638.09;5021970;28;20037;-72
2022/10/06 03:46:24;;;;;;;15.55;7.72;;;;;;;10.45;88.54;101760.34;5024585;28;20037;-74
2022/10/06 03:48:51;;;;;;;16.10;8.40;;;;;;;10.43;88.56;101769.94;5011032;28;20129;-74
2022/10/06 03:51:22;;;;;;;17.45;9.40;;;;;;;10.32;88.77;101753.97;5019637;28;20119;-74
2022/10/06 03:53:50;;;;;;;20.90;8.85;;;;;;;10.33;88.74;101773.22;5014105;28;20042;-76
2022/10/06 03:56:21;;;;;;;17.77;10.23;;;;;;;9.56;89.49;101618.44;5017626;28;20092;-74
2022/10/06 03:58:59;;;;;;;20.23;10.38;;;;;;;10.08;90.14;101740.22;5033185;28;20191;-75
2022/10/06 04:01:30;;;;;;;19.65;9.73;;;;;;;9.49;90.51;101636.63;5018289;28;20035;-75
2022/10/06 04:03:58;;;;;;;15.77;8.43;;;;;;;10.08;90.20;101738.50;5023963;28;20057;-75
2022/10/06 04:06:25;;;;;;;17.55;10.05;;;;;;;9.55;90.21;101645.47;5015507;28;20132;-74
2022/10/06 04:08:52;;;;;;;15.90;9.25;;;;;;;10.03;89.82;101737.50;5026757;28;20060;-75
2022/10/06 04:11:21;;;;;;;20.02;9.63;;;;;;;9.46;88.41;101631.31;5021199;28;20108;-75
2022/10/06 04:13:50;;;;;;;13.38;8.82;;;;;;;10.17;86.42;101764.06;5022491;28;20029;-74
2022/10/06 04:16:25;;;;;;;26.75;9.63;;;;;;;10.02;88.08;101741.00;5024944;28;20040;-76
2022/10/06 04:18:53;;;;;;;22.55;10.38;;;;;;;10.15;89.99;101764.00;5026765;28;20579;-74
2022/10/06 04:21:19;;;;;;;14.68;9.38;;;;;;;10.01;87.35;101748.81;5027273;28;20073;-74
2022/10/06 04:23:45;;;;;;;20.05;9.90;;;;;;;9.98;87.03;101756.63;5024022;28;20262;-75
2022/10/06 04:26:17;;;;;;;20.42;10.05;;;;;;;10.11;88.23;101749.06;5024254;28;20076;-75
2022/10/06 04:28:44;;;;;;;21.42;9.30;;;;;;;10.19;88.97;101766.72;5023480;28;20037;-74
2022/10/06 04:31:17;;;;;;;14.05;9.05;;;;;;;10.19;88.53;101772.84;5016303;28;20038;-75
2022/10/06 04:33:44;;;;;;;;;;;;;;;10.25;88.58;101762.47;5002067;28;20069;-74
2022/10/06 04:36:13;;;;;;;21.20;11.07;;;;;;;9.41;88.92;101630.31;4995077;28;20140;-74
2022/10/06 04:38:38;;;;;;;16.73;10.00;;;;;;;10.19;89.21;101759.72;5005995;28;20122;-74
2022/10/06 04:41:12;;;;;;;16.13;10.70;;;;;;;9.37;89.25;101631.09;4998303;28;20053;-74
2022/10/06 04:43:38;;;;;;;18.45;9.95;;;;;;;10.12;88.83;101742.97;5013453;28;20037;-75
2022/10/06 04:46:03;;;;;;;19.67;10.32;;;;;;;9.80;89.29;101695.00;5036257;28;20132;-75
2022/10/06 04:48:36;;;;;;;18.65;10.35;;;;;;;10.21;89.35;101758.03;5019896;28;20069;-73
2022/10/06 04:51:14;;;;;;;25.60;11.02;;;;;;;9.44;89.81;101629.50;5018190;28;20052;-74
2022/10/06 04:53:43;;;;;;;16.60;10.38;;;;;;;10.01;89.68;101736.56;4999136;28;20112;-74
2022/10/06 04:56:22;;;;;;;20.05;11.18;;;;;;;9.45;87.93;101624.28;5022726;28;20056;-75
2022/10/06 04:58:49;;;;;;;19.58;11.90;;;;;;;10.32;87.56;101767.09;5017276;28;20037;-75
2022/10/06 05:01:30;;;;;;;22.33;11.07;;;;;;;10.35;87.63;101750.53;5016643;28;20048;-74
2022/10/06 05:03:57;;;;;;;15.60;11.25;;;;;;;9.58;85.89;101624.59;5023533;28;20044;-73
2022/10/06 05:06:24;;;;;;;30.25;10.55;;;;;;;10.01;85.70;101680.63;5010677;28;20081;-73
2022/10/06 05:08:52;;;;;;;18.17;10.57;;;;;;;10.27;86.23;101745.03;5014187;28;20568;-74
2022/10/06 05:11:18;;;;;;;24.27;12.52;;;;;;;10.51;85.12;101767.47;5015731;28;20061;-74
2022/10/06 05:13:44;;;;;;;16.20;11.40;;;;;;;10.60;84.77;101772.91;5024645;28;20084;-75
2022/10/06 05:16:13;;;;;;;23.65;11.68;;;;;;;10.35;85.06;101750.53;5015726;28;20033;-75
2022/10/06 05:18:39;;;;;;;22.38;11.43;;;;;;;10.68;85.99;101778.38;5011233;28;20116;-75
2022/10/06 05:21:20;;;;;;;32.95;13.73;;;;;;;10.72;84.80;101777.53;5001354;28;20046;-75
2022/10/06 05:23:46;;;;;;;31.00;12.93;;;;;;;10.74;84.41;101770.59;4998472;28;20121;-75
2022/10/06 05:26:18;;;;;;;17.77;11.00;;;;;;;10.68;84.61;101778.38;4995209;28;20057;-77
2022/10/06 05:28:44;;;;;;;21.35;11.88;;;;;;;10.76;84.30;101787.28;5002995;28;20789;-75
2022/10/06 05:31:13;;;;;;;20.85;11.63;;;;;;;10.35;84.51;101685.81;4985358;28;20109;-75
2022/10/06 05:33:40;;;;;;;16.88;11.18;;;;;;;11.05;84.21;101780.00;4996916;28;20057;-74
2022/10/06 05:36:09;;;;;;;16.40;10.82;;;;;;;11.01;84.11;101780.78;5005148;28;20509;-74
2022/10/06 05:38:35;;;;;;;27.38;11.68;;;;;;;11.17;83.22;101785.50;4997711;28;20054;-74
2022/10/06 05:41:18;;;;;;;20.08;12.30;;;;;;;10.45;82.85;101657.13;4993668;28;20482;-74
2022/10/06 05:43:44;;;;;;;20.83;12.45;;;;;;;11.15;84.42;101755.69;4991955;28;20116;-77
2022/10/06 05:46:19;;;;;;;21.15;10.65;;;;;;;11.12;84.67;101746.84;4989774;28;20065;-77
2022/10/06 05:48:49;;;;;;;24.35;11.55;;;;;;;10.59;84.14;101652.19;4998435;28;20057;-78
2022/10/06 05:51:16;;;;;;;23.83;13.05;;;;;;;11.51;81.61;101799.28;4977327;28;20458;-78
2022/10/06 05:53:43;;;;;;;24.05;13.50;;;;;;;11.55;80.73;101790.59;5003941;28;20060;-77
2022/10/06 05:56:10;;;;;;;19.88;11.32;;;;;;;11.52;81.97;101794.88;4999913;28;20235;-73
2022/10/06 05:58:38;;;;;;;29.65;12.32;;;;;;;10.77;82.42;101665.66;5000124;28;20044;-75
2022/10/06 06:01:15;;;;;;;24.80;12.85;;;;;;;10.87;81.50;101664.09;4997760;28;20119;-74
2022/10/06 06:03:45;;;;;;;21.50;13.32;;;;;;;11.26;81.36;101720.84;4997529;28;20046;-74
2022/10/06 06:06:17;;;;;;;22.00;11.63;;;;;;;10.86;78.85;101650.06;4998608;28;20820;-73
2022/10/06 06:08:43;;;;;;;19.35;11.38;;;;;;;11.50;79.46;101750.19;4996791;28;20057;-74
2022/10/06 06:11:09;;;;;;;20.02;10.98;;;;;;;11.65;80.35;101778.50;4973003;28;20349;-70
2022/10/06 06:13:35;;;;;;;24.85;10.95;;;;;;;11.65;79.47;101767.97;4999080;28;20101;-74
2022/10/06 06:16:03;;;;;;;17.08;11.38;;;;;;;11.18;78.89;101686.53;4991979;28;20061;-76
2022/10/06 06:18:37;;;;;;;16.75;11.02;;;;;;;11.15;77.88;101660.22;5013234;28;20072;-76
2022/10/06 06:21:05;;;;;;;18.90;11.57;;;;;;;11.80;79.24;101776.13;5022138;28;20474;-75
2022/10/06 06:23:44;;;;;;;15.93;9.48;;;;;;;15.65;74.64;101764.69;5009068;28;20060;-71
2022/10/06 06:26:35;;;;;;;18.45;9.70;;;;;;;16.37;71.46;101798.25;5011006;28;20141;-73
2022/10/06 06:29:02;;;;;;;18.92;10.43;;;;;;;15.79;67.11;101723.25;5008751;28;20049;-72
2022/10/06 06:31:30;;;;;;;14.93;9.70;;;;;;;15.55;66.31;101707.38;5024073;28;20064;-69
2022/10/06 06:33:58;;;;;;;25.25;9.95;;;;;;;16.75;64.48;101802.56;5020057;28;20048;-72
2022/10/06 06:36:27;;;;;;;21.08;10.55;;;;;;;16.35;63.18;101709.94;5009301;28;20069;-69
2022/10/06 06:38:55;;;;;;;398.83;329.48;;;;;;;15.95;67.06;101823.88;5036181;28;20033;-72
2022/10/06 06:41:21;;;;;;;28.90;17.90;;;;;;;14.94;60.99;101703.75;5025832;28;20041;-74
2022/10/06 06:43:48;;;;;;;124.60;105.78;;;;;;;16.08;65.35;101811.50;4999383;28;20089;-77
2022/10/06 06:46:14;;;;;;;71.40;48.30;;;;;;;16.42;63.28;101825.59;5025589;28;20465;-81
2022/10/06 06:48:41;;;;;;;80.68;59.42;;;;;;;17.04;60.39;101745.03;5021459;28;20513;-76
2022/10/06 06:51:07;;;;;;;91.93;67.32;;;;;;;16.76;62.75;101768.06;5023446;28;20508;-76
2022/10/06 06:53:33;;;;;;;42.97;25.90;;;;;;;16.81;60.93;101814.06;5026652;28;20451;-72
2022/10/06 06:56:00;;;;;;;28.20;19.85;;;;;;;17.26;58.96;101822.72;5022401;28;20029;-76
2022/10/06 06:58:25;;;;;;;32.38;12.27;;;;;;;16.15;61.58;101808.84;5015602;28;20381;-75
2022/10/06 07:00:51;;;;;;;40.92;24.35;;;;;;;16.17;59.59;101718.81;5018499;28;20045;-73
2022/10/06 07:03:20;;;;;;;901.35;617.83;;;;;;;16.66;61.92;101799.03;5019964;28;20774;-75
2022/10/06 07:05:46;;;;;;;473.48;317.23;;;;;;;17.24;57.52;101803.25;5021448;28;20049;-70
2022/10/06 07:08:18;;;;;;;224.07;123.00;;;;;;;16.04;58.02;101715.31;5025207;28;20057;-69
2022/10/06 07:10:44;;;;;;;163.77;88.23;;;;;;;17.30;56.45;101797.94;5028527;28;20029;-69
2022/10/06 07:13:14;;;;;;;374.45;238.65;;;;;;;16.70;60.48;101820.25;5026865;28;20092;-71
2022/10/06 07:26:38;;;;;;;57.50;31.38;;;;;;;17.70;56.35;101829.53;5023580;28;20129;-70
2022/10/06 07:29:04;;;;;;;47.13;25.65;;;;;;;17.51;55.73;101708.44;5026262;28;20401;-71
2022/10/06 07:31:32;;;;;;;57.60;28.73;;;;;;;16.95;57.53;101733.56;5026577;28;20539;-70
2022/10/06 07:34:02;;;;;;;26.75;14.23;;;;;;;16.76;57.61;101724.78;5005005;28;20388;-69
2022/10/06 07:36:29;;;;;;;19.25;13.40;;;;;;;17.80;56.48;101809.09;5007397;28;20056;-71
2022/10/06 07:38:54;;;;;;;19.38;8.93;;;;;;;17.18;55.52;101803.28;5012847;28;20041;-72
2022/10/06 07:41:20;;;;;;;19.50;8.88;;;;;;;16.91;57.16;101817.56;5029921;28;20042;-74
2022/10/06 07:43:46;;;;;;;15.60;8.65;;;;;;;15.77;58.46;101769.13;5018915;28;20026;-74
2022/10/06 07:46:12;;;;;;;24.27;8.70;;;;;;;15.38;59.98;101715.25;5033490;28;20393;-74
2022/10/06 07:48:38;;;;;;;18.30;8.50;;;;;;;15.72;59.73;101832.66;5024200;28;20056;-74
2022/10/06 07:51:10;;;;;;;26.25;8.45;;;;;;;15.96;60.00;101834.44;5028509;28;20050;-73
2022/10/06 07:53:37;;;;;;;21.83;7.82;;;;;;;15.75;60.59;101795.59;5027010;28;20168;-73
2022/10/06 07:56:07;;;;;;;19.33;10.18;;;;;;;15.41;59.94;101733.81;5027220;28;20033;-74
2022/10/06 07:58:36;;;;;;;19.70;9.85;;;;;;;15.43;59.97;101737.34;5028117;28;20029;-74
2022/10/06 08:01:06;;;;;;;15.90;7.30;;;;;;;15.60;60.42;101756.75;5025010;28;20041;-76
2022/10/06 08:03:32;;;;;;;15.82;8.40;;;;;;;15.46;60.06;101702.94;5000131;28;20053;-74
2022/10/06 08:06:02;;;;;;;22.88;8.45;;;;;;;15.14;60.22;101698.47;5007089;28;20239;-74
2022/10/06 08:08:35;;;;;;;18.30;6.28;;;;;;;15.87;60.57;101818.53;5027910;28;20553;-74
2022/10/06 08:11:02;;;;;;;15.32;6.03;;;;;;;15.54;60.11;101727.63;5008690;28;20041;-74
2022/10/06 08:13:31;;;;;;;11.25;6.30;;;;;;;15.34;59.46;101692.38;5009669;28;20049;-74
2022/10/06 08:16:06;;;;;;;13.00;7.28;;;;;;;15.82;59.20;101789.41;5018735;28;20038;-74
2022/10/06 08:18:32;;;;;;;10.65;6.68;;;;;;;15.54;59.78;101718.81;5029107;28;20381;-76
2022/10/06 08:20:58;;;;;;;19.65;7.10;;;;;;;15.15;59.74;101633.28;5026824;28;20174;-74
2022/10/06 08:23:24;;;;;;;19.15;5.30;;;;;;;16.08;58.67;101791.19;5026387;28;20128;-74
2022/10/06 08:25:52;;;;;;;11.70;6.47;;;;;;;16.28;58.66;101812.38;5017484;28;20041;-75
2022/10/06 08:28:18;;;;;;;8.68;5.07;;;;;;;15.72;59.35;101715.34;5017753;28;20140;-75
2022/10/06 08:30:43;;;;;;;11.45;5.13;;;;;;;16.33;58.58;101805.28;5024167;28;20036;-76
2022/10/06 08:33:08;;;;;;;8.52;4.47;;;;;;;15.76;58.66;101675.63;5020407;28;20038;-74
2022/10/06 08:35:34;;;;;;;12.02;5.82;;;;;;;16.32;58.73;101754.97;5016804;28;20038;-74
2022/10/06 08:38:00;;;;;;;11.35;7.20;;;;;;;16.54;58.52;101795.56;5019991;28;20033;-75
2022/10/06 08:40:27;;;;;;;22.40;5.88;;;;;;;15.89;57.49;101683.56;5026176;28;20053;-74
2022/10/06 08:42:59;;;;;;;8.95;4.00;;;;;;;16.56;57.39;101792.00;5021368;28;20064;-74
2022/10/06 08:45:42;;;;;;;9.50;4.43;;;;;;;15.49;57.67;101589.19;5026996;28;20041;-75
2022/10/06 08:48:13;;;;;;;8.40;4.57;;;;;;;16.11;57.93;101676.44;5005499;28;20045;-74
2022/10/06 08:51:07;;;;;;;15.27;6.35;;;;;;;16.83;57.73;101784.88;5020096;28;20049;-73
2022/10/06 08:53:58;;;;;;;8.65;4.20;;;;;;;16.90;56.05;101785.75;5026726;28;20114;-74
2022/10/06 08:56:32;;;;;;;18.73;4.10;;;;;;;16.87;55.70;101797.25;5002683;28;20442;-74
2022/10/06 08:59:04;;;;;;;6.78;3.20;;;;;;;16.40;56.16;101694.91;5011414;28;20059;-74
2022/10/06 09:01:59;;;;;;;8.60;3.77;;;;;;;17.01;56.38;101798.06;5010196;28;20037;-73
2022/10/06 09:04:28;;;;;;;25.88;3.97;;;;;;;17.03;56.15;101803.38;4989168;28;20486;-72
2022/10/06 09:07:02;;;;;;;12.60;3.53;;;;;;;17.07;55.50;101802.47;5014294;28;20132;-72
2022/10/06 09:10:16;;;;;;;11.07;3.67;;;;;;;17.05;54.76;101799.81;5019865;28;20481;-73
2022/10/06 09:12:50;;;;;;;5.85;2.40;;;;;;;17.14;54.47;101788.28;5020576;28;20050;-73
2022/10/06 09:15:38;;;;;;;17.02;2.90;;;;;;;17.31;54.04;101798.81;4995795;28;20046;-73
2022/10/06 09:18:13;;;;;;;6.40;3.25;;;;;;;17.37;54.27;101801.44;5037526;28;20045;-72
2022/10/06 09:20:54;;;;;;;7.35;2.88;;;;;;;17.39;54.62;101791.66;5025730;28;20795;-73
2022/10/06 09:23:46;;;;;;;8.48;4.03;;;;;;;17.32;53.84;101766.06;5026456;28;20042;-72
2022/10/06 09:26:13;;;;;;;9.82;5.00;;;;;;;16.97;54.54;101671.69;5025798;28;20041;-72
2022/10/06 09:28:39;;;;;;;9.07;3.42;;;;;;;17.06;54.56;101660.13;5024825;28;20108;-73
2022/10/06 09:31:28;;;;;;;7.43;2.97;;;;;;;17.66;53.12;101769.38;5025790;28;20084;-72
2022/10/06 09:33:58;;;;;;;5.28;2.63;;;;;;;17.11;52.72;101682.19;5014275;28;20045;-72
2022/10/06 09:36:24;;;;;;;6.30;2.90;;;;;;;17.54;52.22;101732.31;4998639;28;20414;-73
2022/10/06 09:38:55;;;;;;;9.93;3.20;;;;;;;17.81;52.58;101764.88;5023051;28;20045;-74
2022/10/06 09:41:25;;;;;;;5.95;3.00;;;;;;;17.87;52.06;101763.06;5020539;28;20127;-73
2022/10/06 09:44:02;;;;;;;5.35;3.08;;;;;;;17.40;53.00;101666.09;5002119;28;20029;-73
2022/10/06 09:46:33;;;;;;;8.35;2.90;;;;;;;17.52;52.24;101657.13;5008725;28;20092;-74
2022/10/06 09:49:23;;;;;;;10.38;3.90;;;;;;;17.99;51.23;101745.25;5005147;28;20041;-74
2022/10/06 09:52:11;;;;;;;6.47;3.00;;;;;;;18.06;51.25;101742.50;5002412;28;20046;-72
2022/10/06 09:54:37;;;;;;;6.53;3.17;;;;;;;17.69;51.46;101670.25;5021187;28;20137;-72
2022/10/06 09:57:30;;;;;;;8.05;2.97;;;;;;;18.17;51.23;101742.44;5025325;28;20047;-74
2022/10/06 09:59:58;;;;;;;6.07;3.65;;;;;;;17.90;51.05;101685.13;5018594;28;20053;-73
2022/10/06 10:02:39;;;;;;;4.85;2.95;;;;;;;18.24;51.33;101737.91;5010068;28;20057;-73
2022/10/06 10:05:19;;;;;;;6.90;3.10;;;;;;;18.19;50.47;101727.34;5022399;28;20061;-73
2022/10/06 10:07:46;;;;;;;7.22;4.35;;;;;;;17.76;51.90;101626.81;5015833;28;20030;-73
2022/10/06 10:10:24;;;;;;;5.60;2.92;;;;;;;18.65;49.78;101731.25;5004212;28;20105;-73
2022/10/06 10:12:55;;;;;;;12.50;5.80;;;;;;;18.57;50.40;101734.00;5016198;28;20200;-73
2022/10/06 10:15:20;;;;;;;7.28;2.67;;;;;;;18.67;51.13;101729.47;5018408;28;20140;-73
2022/10/06 10:18:01;;;;;;;8.70;4.28;;;;;;;18.41;49.47;101652.69;5024240;28;20471;-72
2022/10/06 10:20:40;;;;;;;8.15;3.30;;;;;;;18.94;49.46;101730.88;5018575;28;20888;-73
2022/10/06 10:23:28;;;;;;;10.90;2.38;;;;;;;19.04;48.83;101726.34;5022219;28;20037;-73
2022/10/06 10:26:25;;;;;;;7.18;3.58;;;;;;;19.24;49.19;101718.06;4998892;28;20034;-74
2022/10/06 10:29:03;;;;;;;8.40;2.88;;;;;;;19.40;48.62;101715.13;5008711;28;20033;-72
2022/10/06 10:31:42;;;;;;;15.07;2.95;;;;;;;19.51;49.35;101711.44;5015107;28;20033;-73
2022/10/06 10:34:13;;;;;;;7.65;2.75;;;;;;;18.97;47.84;101613.81;4997276;28;20049;-73
2022/10/06 10:36:49;;;;;;;6.57;2.72;;;;;;;19.09;48.13;101610.97;5022205;28;20160;-73
2022/10/06 10:39:26;;;;;;;8.55;3.00;;;;;;;19.80;47.48;101698.53;5025496;28;20049;-73
2022/10/06 10:41:55;;;;;;;7.20;3.22;;;;;;;19.81;47.97;101660.34;5026240;28;20049;-74
2022/10/06 10:44:40;;;;;;;6.38;2.60;;;;;;;20.14;46.54;101681.94;5022380;28;20137;-74
2022/10/06 10:47:24;;;;;;;4.93;2.58;;;;;;;20.05;45.93;101681.22;5005673;28;20052;-74
2022/10/06 10:50:03;;;;;;;5.85;2.15;;;;;;;19.95;46.65;101619.25;5015031;28;20088;-73
2022/10/06 10:52:33;;;;;;;6.85;2.63;;;;;;;19.86;46.17;101577.69;5007078;28;20037;-75
2022/10/06 10:55:26;;;;;;;4.90;2.65;;;;;;;20.18;46.15;101698.72;5024965;28;20485;-74
2022/10/06 10:57:58;;;;;;;4.68;2.42;;;;;;;19.99;46.03;101666.22;5023174;28;20059;-74
2022/10/06 11:00:27;;;;;;;6.75;3.88;;;;;;;20.31;45.32;101676.25;5024393;28;20069;-73
2022/10/06 11:02:57;;;;;;;33.33;3.45;;;;;;;20.46;45.27;101680.38;5027118;28;20056;-73
2022/10/06 11:06:04;;;;;;;7.28;2.97;;;;;;;20.36;45.01;101689.50;5018035;28;20132;-76
2022/10/06 11:08:43;;;;;;;12.98;2.30;;;;;;;20.38;44.88;101677.88;5022979;28;20045;-72
2022/10/06 11:11:33;;;;;;;9.52;2.58;;;;;;;20.27;44.61;101652.34;5008859;28;20138;-75
2022/10/06 11:14:04;;;;;;;5.65;2.85;;;;;;;20.48;45.51;101667.03;5025272;28;21919;-74
2022/10/06 11:17:19;;;;;;;10.55;3.58;;;;;;;20.37;44.26;101662.81;4991557;28;20026;-75
2022/10/06 11:20:00;;;;;;;11.55;2.75;;;;;;;20.47;44.73;101651.97;4998178;28;20052;-76
2022/10/06 11:22:40;;;;;;;13.13;3.15;;;;;;;20.09;44.71;101584.31;5017630;28;20052;-76
2022/10/06 11:25:21;;;;;;;6.07;3.08;;;;;;;20.54;44.35;101654.47;5028527;28;20129;-77
2022/10/06 11:28:16;;;;;;;7.55;2.47;;;;;;;20.24;45.26;101624.84;5021793;28;20038;-74
2022/10/06 11:31:16;;;;;;;7.38;3.15;;;;;;;20.47;44.83;101638.63;5013174;28;20049;-78
2022/10/06 11:33:58;;;;;;;7.32;2.28;;;;;;;19.93;44.64;101551.81;5025252;28;20069;-75
2022/10/06 11:36:45;;;;;;;4.95;2.13;;;;;;;20.60;44.39;101640.13;5002961;28;20038;-75
2022/10/06 11:39:22;;;;;;;16.73;2.78;;;;;;;19.78;45.58;101515.69;5023013;28;20064;-75
2022/10/06 11:41:58;;;;;;;3.72;2.15;;;;;;;20.46;43.79;101640.38;5004471;28;20817;-74
2022/10/06 11:44:50;;;;;;;7.97;3.28;;;;;;;20.56;43.85;101642.00;5005905;28;20049;-75